Time;durP1;ratioP1;P1;durP2;ratioP2;P2;SDS_P1;SDS_P2;PMS_P1;PMS_P2;Temp;Humidity;BMP_temperature;BMP_pressure;BME280_temperature;BME280_humidity;BME280_pressure;Samples;Min_cycle;Max_cycle;Signal;HPM_P1;HPM_P2
2021/09/23 00:00:07;;;;;;;23.45;16.42;;;14.50;92.50;;;;;;4977485;28;20035;-77
2021/09/23 00:05:12;;;;;;;20.88;15.85;;;14.60;92.20;;;;;;4977361;28;20098;-76
2021/09/23 00:07:39;;;;;;;22.65;14.55;;;14.50;92.30;;;;;;4977439;28;20019;-77
2021/09/23 00:10:07;;;;;;;20.38;15.05;;;14.60;91.60;;;;;;4977777;28;20034;-76
2021/09/23 00:12:34;;;;;;;20.85;15.63;;;14.50;91.40;;;;;;4976121;28;20022;-76
2021/09/23 00:15:00;;;;;;;21.50;15.07;;;14.50;91.70;;;;;;4976121;28;20448;-77
2021/09/23 00:17:26;;;;;;;21.15;14.98;;;14.50;91.50;;;;;;4977356;28;20022;-77
2021/09/23 00:19:52;;;;;;;24.52;15.88;;;14.50;91.70;;;;;;4977493;28;20111;-76
2021/09/23 00:22:17;;;;;;;22.20;15.50;;;14.50;91.00;;;;;;4977067;28;20038;-77
2021/09/23 00:24:43;;;;;;;23.30;15.20;;;14.50;91.20;;;;;;4977521;28;20023;-77
2021/09/23 00:27:09;;;;;;;21.38;14.57;;;14.40;91.20;;;;;;4976068;28;20023;-76
2021/09/23 00:29:35;;;;;;;25.92;16.00;;;14.50;91.30;;;;;;4977112;28;20031;-76
2021/09/23 00:32:02;;;;;;;22.42;14.80;;;14.30;91.80;;;;;;4977095;28;20018;-75
2021/09/23 00:34:28;;;;;;;21.00;14.73;;;14.20;91.90;;;;;;4975738;28;20397;-76
2021/09/23 00:36:53;;;;;;;20.30;14.00;;;14.10;91.90;;;;;;4977007;28;20023;-76
2021/09/23 00:39:21;;;;;;;22.50;15.13;;;14.10;91.90;;;;;;4976962;28;20109;-77
2021/09/23 00:41:47;;;;;;;21.63;15.63;;;14.20;91.60;;;;;;4976919;28;20027;-76
2021/09/23 00:44:18;;;;;;;21.83;15.10;;;14.30;91.60;;;;;;4976836;28;20034;-76
2021/09/23 00:46:45;;;;;;;19.77;14.65;;;14.40;91.90;;;;;;4977120;28;20027;-76
2021/09/23 00:49:11;;;;;;;26.85;15.52;;;14.30;91.20;;;;;;4977002;28;20030;-77
2021/09/23 00:51:37;;;;;;;20.02;14.32;;;14.40;91.50;;;;;;4976783;28;20538;-76
2021/09/23 00:54:04;;;;;;;21.23;14.52;;;14.30;91.60;;;;;;4976663;28;20441;-77
2021/09/23 00:56:30;;;;;;;22.40;15.63;;;14.30;90.90;;;;;;4976692;28;20481;-77
2021/09/23 00:58:57;;;;;;;19.85;14.65;;;14.20;91.40;;;;;;4976568;28;20031;-77
2021/09/23 01:01:23;;;;;;;20.52;13.70;;;14.10;91.70;;;;;;4975337;28;20396;-76
2021/09/23 01:03:49;;;;;;;21.27;13.18;;;14.10;91.00;;;;;;4976545;28;20027;-76
2021/09/23 01:06:14;;;;;;;21.80;14.35;;;14.00;90.20;;;;;;4977058;28;20041;-76
2021/09/23 01:08:40;;;;;;;20.35;12.85;;;13.90;91.10;;;;;;4976461;28;20114;-75
2021/09/23 01:11:06;;;;;;;22.35;13.63;;;13.70;91.20;;;;;;4976404;28;20046;-76
2021/09/23 01:13:32;;;;;;;17.95;12.98;;;13.60;91.60;;;;;;4976410;28;20023;-77
2021/09/23 01:15:58;;;;;;;23.20;14.98;;;13.60;91.60;;;;;;4976315;28;20030;-77
2021/09/23 01:18:24;;;;;;;21.27;14.00;;;13.50;92.50;;;;;;4976248;28;20400;-77
2021/09/23 01:20:50;;;;;;;20.05;13.40;;;13.60;92.60;;;;;;4976346;28;20074;-76
2021/09/23 01:23:16;;;;;;;19.67;14.13;;;13.70;92.00;;;;;;4976138;28;20412;-77
2021/09/23 01:25:42;;;;;;;23.10;15.02;;;13.60;91.60;;;;;;4976492;28;20033;-77
2021/09/23 01:28:09;;;;;;;24.45;15.00;;;13.50;92.30;;;;;;4975960;28;20035;-76
2021/09/23 01:30:35;;;;;;;22.10;13.98;;;13.50;91.70;;;;;;4976011;28;20384;-76
2021/09/23 01:33:01;;;;;;;21.17;13.15;;;13.50;91.80;;;;;;4975974;28;20098;-75
2021/09/23 01:35:26;;;;;;;23.67;14.80;;;13.50;92.10;;;;;;4975949;28;20414;-77
2021/09/23 01:37:52;;;;;;;19.92;13.90;;;13.60;91.90;;;;;;4975691;28;20038;-76
2021/09/23 01:40:18;;;;;;;18.30;11.70;;;13.50;91.50;;;;;;4975827;28;20027;-77
2021/09/23 01:42:44;;;;;;;28.00;15.40;;;13.40;90.50;;;;;;4974507;28;20038;-76
2021/09/23 01:45:12;;;;;;;24.25;16.45;;;13.40;91.10;;;;;;4975724;28;20034;-77
2021/09/23 01:47:38;;;;;;;29.42;19.15;;;13.20;92.60;;;;;;4975598;28;20030;-76
2021/09/23 01:50:04;;;;;;;34.80;20.63;;;13.20;94.10;;;;;;4976191;28;20031;-76
2021/09/23 01:52:30;;;;;;;31.48;19.48;;;13.30;94.20;;;;;;4975791;28;20022;-77
2021/09/23 01:54:56;;;;;;;33.10;21.23;;;13.20;94.50;;;;;;4975553;28;20027;-76
2021/09/23 01:57:21;;;;;;;31.65;18.48;;;13.30;95.00;;;;;;4975505;28;20489;-75
2021/09/23 01:59:47;;;;;;;31.55;17.98;;;13.50;94.10;;;;;;4974230;28;20027;-76
2021/09/23 02:02:12;;;;;;;38.20;20.60;;;13.50;93.80;;;;;;4975693;28;20127;-76
2021/09/23 02:04:38;;;;;;;32.13;18.65;;;13.50;94.00;;;;;;4975342;28;20041;-75
2021/09/23 02:07:05;;;;;;;34.45;20.52;;;13.40;94.30;;;;;;4975581;28;20027;-75
2021/09/23 02:09:32;;;;;;;38.42;22.95;;;13.40;94.80;;;;;;4975789;28;20466;-76
2021/09/23 02:12:00;;;;;;;34.90;22.45;;;13.20;95.30;;;;;;4975287;28;20556;-76
2021/09/23 02:14:26;;;;;;;38.88;22.85;;;13.30;95.50;;;;;;4975231;28;20485;-75
2021/09/23 02:16:52;;;;;;;52.95;23.98;;;13.40;95.60;;;;;;4973904;28;20039;-75
2021/09/23 02:19:17;;;;;;;35.00;21.52;;;13.40;96.00;;;;;;4975287;28;20066;-76
2021/09/23 02:21:43;;;;;;;47.33;24.55;;;13.50;95.80;;;;;;4974778;28;20033;-76
2021/09/23 02:24:09;;;;;;;45.22;24.10;;;13.50;96.30;;;;;;4975636;28;20066;-76
2021/09/23 02:26:34;;;;;;;56.78;25.13;;;13.40;97.60;;;;;;4974979;28;20105;-75
2021/09/23 02:29:00;;;;;;;33.25;20.52;;;13.40;97.50;;;;;;4974850;28;20537;-76
2021/09/23 02:31:25;;;;;;;39.50;21.15;;;13.40;96.70;;;;;;4974909;28;20529;-77
2021/09/23 02:33:51;;;;;;;31.00;19.52;;;13.50;95.90;;;;;;4974887;28;20393;-76
2021/09/23 02:36:17;;;;;;;36.45;21.27;;;13.60;95.60;;;;;;4973573;28;20019;-76
2021/09/23 02:38:42;;;;;;;30.08;18.58;;;13.40;96.00;;;;;;4974820;28;20110;-76
2021/09/23 02:41:08;;;;;;;39.53;19.88;;;13.40;95.70;;;;;;4974781;28;20035;-77
2021/09/23 02:43:34;;;;;;;46.55;22.02;;;13.40;95.70;;;;;;4974999;28;20081;-76
2021/09/23 02:46:00;;;;;;;33.08;18.50;;;13.30;95.90;;;;;;4974651;28;20023;-75
2021/09/23 02:48:26;;;;;;;35.05;19.10;;;13.30;96.50;;;;;;4974860;28;20027;-76
2021/09/23 02:50:52;;;;;;;30.35;16.70;;;13.20;96.70;;;;;;4974165;28;20015;-76
2021/09/23 02:53:17;;;;;;;55.38;20.90;;;13.20;96.80;;;;;;4974896;28;20023;-76
2021/09/23 02:55:43;;;;;;;36.42;19.48;;;13.10;97.20;;;;;;4974623;28;20094;-75
2021/09/23 02:58:09;;;;;;;35.30;17.13;;;13.10;96.90;;;;;;4974547;28;20038;-77
2021/09/23 03:00:34;;;;;;;29.40;18.08;;;13.10;96.40;;;;;;4975064;28;20027;-75
2021/09/23 03:03:00;;;;;;;37.33;17.63;;;13.10;96.50;;;;;;4973210;28;20551;-77
2021/09/23 03:05:26;;;;;;;32.20;17.00;;;13.10;96.30;;;;;;4974200;28;20114;-77
2021/09/23 03:07:51;;;;;;;20.40;14.77;;;13.10;96.20;;;;;;4974667;28;20118;-76
2021/09/23 03:10:17;;;;;;;43.70;18.67;;;13.10;96.40;;;;;;4974684;28;20054;-75
2021/09/23 03:12:43;;;;;;;40.97;18.17;;;13.10;96.00;;;;;;4974437;28;20102;-77
2021/09/23 03:15:09;;;;;;;26.60;14.93;;;13.20;96.40;;;;;;4974660;28;20027;-76
2021/09/23 03:17:34;;;;;;;22.00;15.30;;;13.30;96.50;;;;;;4974938;28;20023;-75
2021/09/23 03:20:00;;;;;;;41.33;17.52;;;13.20;96.60;;;;;;4974539;28;20078;-76
2021/09/23 03:22:27;;;;;;;41.28;16.35;;;13.10;96.60;;;;;;4972852;28;20420;-77
2021/09/23 03:24:53;;;;;;;36.53;16.88;;;13.00;96.70;;;;;;4974574;28;20109;-76
2021/09/23 03:27:19;;;;;;;23.80;15.38;;;12.90;97.10;;;;;;4974290;28;20528;-76
2021/09/23 03:29:45;;;;;;;26.50;15.30;;;12.70;97.40;;;;;;4974199;28;20519;-76
2021/09/23 03:32:11;;;;;;;28.55;15.27;;;12.80;97.20;;;;;;4974178;28;20034;-76
2021/09/23 03:34:37;;;;;;;21.75;14.93;;;12.80;97.20;;;;;;4974162;28;20027;-76
2021/09/23 03:37:02;;;;;;;22.55;14.93;;;12.90;97.10;;;;;;4974459;28;20029;-77
2021/09/23 03:39:28;;;;;;;23.73;15.00;;;12.90;97.00;;;;;;4974182;28;20114;-77
2021/09/23 03:41:54;;;;;;;24.55;15.10;;;12.90;97.00;;;;;;4974187;28;20093;-77
2021/09/23 03:44:19;;;;;;;28.08;16.45;;;12.90;97.10;;;;;;4974123;28;20031;-76
2021/09/23 03:46:45;;;;;;;34.53;17.33;;;12.90;97.20;;;;;;4974075;28;20440;-76
2021/09/23 03:49:11;;;;;;;37.92;16.00;;;12.90;97.30;;;;;;4974022;28;20026;-76
2021/09/23 03:51:36;;;;;;;23.10;15.68;;;12.80;97.60;;;;;;4974047;28;20102;-75
2021/09/23 03:54:03;;;;;;;22.08;15.60;;;12.70;97.50;;;;;;4974032;28;20396;-75
2021/09/23 03:56:28;;;;;;;25.15;16.15;;;12.80;97.20;;;;;;4974025;28;20048;-76
2021/09/23 03:58:54;;;;;;;25.27;16.15;;;12.90;96.90;;;;;;4974010;28;20085;-76
2021/09/23 04:01:20;;;;;;;21.77;15.32;;;13.00;96.50;;;;;;4975738;28;20544;-76
2021/09/23 04:03:45;;;;;;;22.80;14.82;;;12.90;96.50;;;;;;4977663;28;20054;-76
2021/09/23 04:06:11;;;;;;;22.83;15.32;;;12.90;96.60;;;;;;4977637;28;20437;-76
2021/09/23 04:08:37;;;;;;;20.20;14.00;;;12.90;95.80;;;;;;4977476;28;20027;-76
2021/09/23 04:11:03;;;;;;;17.17;12.02;;;12.80;95.20;;;;;;4977793;28;20031;-76
2021/09/23 04:13:29;;;;;;;18.00;13.48;;;12.60;95.80;;;;;;4977513;28;20070;-76
2021/09/23 04:15:55;;;;;;;21.88;15.07;;;12.70;95.90;;;;;;4977451;28;20050;-76
2021/09/23 04:18:20;;;;;;;20.58;14.38;;;12.60;96.00;;;;;;4977624;28;20026;-76
2021/09/23 04:20:47;;;;;;;24.15;13.50;;;12.60;96.10;;;;;;4977044;28;20034;-76
2021/09/23 04:23:13;;;;;;;16.67;12.38;;;12.50;96.30;;;;;;4977235;28;20035;-76
2021/09/23 04:25:39;;;;;;;19.30;14.15;;;12.40;96.70;;;;;;4977207;28;20035;-76
2021/09/23 04:28:05;;;;;;;22.67;14.05;;;12.60;96.40;;;;;;4977631;28;20031;-75
2021/09/23 04:30:30;;;;;;;19.63;13.38;;;12.60;95.80;;;;;;4977396;28;20098;-77
2021/09/23 04:32:57;;;;;;;19.77;13.27;;;12.50;95.80;;;;;;4977077;28;20027;-76
2021/09/23 04:35:23;;;;;;;22.88;12.57;;;12.40;96.40;;;;;;4977045;28;20480;-76
2021/09/23 04:37:48;;;;;;;18.67;13.50;;;12.40;96.80;;;;;;4977010;28;20023;-76
2021/09/23 04:40:14;;;;;;;23.13;13.48;;;12.40;96.80;;;;;;4977533;28;20034;-75
2021/09/23 04:42:43;;;;;;;21.55;14.23;;;12.40;96.90;;;;;;4976962;28;20515;-76
2021/09/23 04:45:10;;;;;;;18.67;13.32;;;12.40;96.80;;;;;;4976955;28;20110;-76
2021/09/23 04:47:36;;;;;;;16.77;11.88;;;12.50;96.80;;;;;;4976795;28;20043;-76
2021/09/23 04:50:03;;;;;;;19.23;13.23;;;12.50;96.60;;;;;;4976823;28;20050;-76
2021/09/23 04:52:28;;;;;;;18.75;13.20;;;12.50;96.90;;;;;;4976804;28;20026;-76
2021/09/23 04:54:54;;;;;;;27.35;15.32;;;12.50;96.90;;;;;;4976714;28;20034;-75
2021/09/23 04:57:19;;;;;;;19.80;13.30;;;12.50;97.10;;;;;;4976682;28;20029;-76
2021/09/23 04:59:45;;;;;;;28.00;14.77;;;12.50;97.30;;;;;;4977143;28;20066;-77
2021/09/23 05:02:11;;;;;;;16.63;12.25;;;12.50;97.40;;;;;;4976598;28;20153;-75
2021/09/23 05:04:37;;;;;;;23.60;13.45;;;12.50;97.20;;;;;;4976539;28;20489;-75
2021/09/23 05:07:03;;;;;;;19.95;13.43;;;12.60;97.10;;;;;;4976544;28;20106;-76
2021/09/23 05:09:30;;;;;;;36.78;14.98;;;12.50;97.20;;;;;;4976392;28;20027;-77
2021/09/23 05:11:57;;;;;;;22.33;13.85;;;12.60;96.80;;;;;;4976229;28;20023;-76
2021/09/23 05:14:22;;;;;;;19.05;11.77;;;12.50;97.30;;;;;;4976056;28;20027;-76
2021/09/23 05:16:48;;;;;;;17.15;12.15;;;12.50;96.00;;;;;;4976335;28;20573;-75
2021/09/23 05:19:14;;;;;;;19.90;13.88;;;12.40;97.10;;;;;;4976496;28;20038;-76
2021/09/23 05:21:41;;;;;;;20.05;14.10;;;12.30;97.10;;;;;;4975933;28;20034;-77
2021/09/23 05:24:09;;;;;;;17.73;12.10;;;12.20;96.90;;;;;;4976211;28;20027;-76
2021/09/23 05:26:35;;;;;;;17.70;12.05;;;12.30;96.30;;;;;;4976114;28;20029;-75
2021/09/23 05:29:01;;;;;;;19.95;13.48;;;12.40;95.90;;;;;;4975983;28;20038;-75
2021/09/23 05:31:26;;;;;;;19.65;12.95;;;12.40;95.80;;;;;;4976039;28;20034;-75
2021/09/23 05:33:54;;;;;;;21.70;14.40;;;12.30;96.10;;;;;;4975952;28;20065;-75
2021/09/23 05:36:20;;;;;;;18.88;13.48;;;12.30;96.10;;;;;;4975981;28;20558;-76
2021/09/23 05:38:45;;;;;;;15.82;10.77;;;12.20;96.10;;;;;;4976158;28;20035;-76
2021/09/23 05:41:11;;;;;;;17.05;11.40;;;12.20;96.10;;;;;;4976144;28;20026;-76
2021/09/23 05:43:38;;;;;;;17.05;11.73;;;12.20;95.90;;;;;;4975784;28;20042;-77
2021/09/23 05:46:05;;;;;;;22.48;12.48;;;12.00;96.20;;;;;;4976028;28;20524;-76
2021/09/23 05:48:30;;;;;;;16.98;12.55;;;12.00;96.30;;;;;;4975910;28;20075;-76
2021/09/23 05:50:56;;;;;;;17.27;11.15;;;12.10;96.30;;;;;;4975919;28;20089;-76
2021/09/23 05:53:21;;;;;;;21.83;12.95;;;12.10;96.10;;;;;;4975649;28;20059;-76
2021/09/23 05:55:47;;;;;;;21.27;12.82;;;12.10;96.30;;;;;;4975632;28;20023;-75
2021/09/23 05:58:13;;;;;;;26.88;13.90;;;12.10;96.50;;;;;;4975578;28;20106;-76
2021/09/23 06:00:38;;;;;;;22.92;14.95;;;12.20;96.60;;;;;;4975774;28;20557;-76
2021/09/23 06:03:04;;;;;;;31.83;14.75;;;12.10;96.90;;;;;;4975737;28;20500;-76
2021/09/23 06:05:30;;;;;;;23.50;14.93;;;12.20;96.70;;;;;;4975376;28;20058;-77
2021/09/23 06:07:55;;;;;;;22.00;14.25;;;12.10;96.90;;;;;;4975048;28;20073;-76
2021/09/23 06:10:21;;;;;;;21.17;13.73;;;12.20;96.60;;;;;;4975328;28;20027;-76
2021/09/23 06:12:47;;;;;;;24.33;14.63;;;12.30;96.50;;;;;;4975330;28;20031;-75
2021/09/23 06:15:13;;;;;;;23.10;14.43;;;12.40;96.20;;;;;;4975466;28;20481;-76
2021/09/23 06:17:42;;;;;;;22.85;14.73;;;12.30;96.50;;;;;;4975205;28;20102;-76
2021/09/23 06:20:08;;;;;;;19.10;12.82;;;12.20;96.30;;;;;;4973831;28;20022;-76
2021/09/23 06:22:34;;;;;;;20.75;14.07;;;12.20;96.30;;;;;;4974888;28;20556;-76
2021/09/23 06:25:00;;;;;;;40.92;16.15;;;12.20;96.10;;;;;;4974167;28;20065;-76
2021/09/23 06:27:26;;;;;;;27.88;16.60;;;12.30;96.10;;;;;;4974968;28;20102;-75
2021/09/23 06:29:51;;;;;;;20.45;13.43;;;12.10;96.60;;;;;;4974886;28;20031;-76
2021/09/23 06:32:17;;;;;;;27.63;16.17;;;12.00;97.00;;;;;;4975207;28;20030;-76
2021/09/23 06:34:43;;;;;;;26.63;14.77;;;12.00;96.90;;;;;;4975193;28;20022;-76
2021/09/23 06:37:09;;;;;;;20.17;13.70;;;12.00;96.80;;;;;;4974896;28;20033;-76
2021/09/23 06:39:34;;;;;;;23.60;13.80;;;11.90;96.80;;;;;;4975142;28;20029;-75
2021/09/23 06:42:00;;;;;;;19.92;13.68;;;12.00;96.60;;;;;;4975074;28;20031;-76
2021/09/23 06:44:25;;;;;;;22.50;13.93;;;12.00;96.40;;;;;;4975025;28;20030;-76
2021/09/23 06:46:51;;;;;;;17.98;12.50;;;12.20;95.80;;;;;;4974740;28;20041;-76
2021/09/23 06:49:17;;;;;;;16.90;12.18;;;12.20;95.80;;;;;;4974685;28;20481;-75
2021/09/23 06:51:43;;;;;;;15.05;11.77;;;12.30;95.30;;;;;;4974902;28;20098;-75
2021/09/23 06:54:08;;;;;;;16.45;10.98;;;12.30;95.10;;;;;;4974633;28;20054;-81
2021/09/23 06:56:35;;;;;;;16.80;12.38;;;12.30;95.30;;;;;;4974326;28;20572;-79
2021/09/23 06:59:01;;;;;;;18.15;12.70;;;12.40;95.20;;;;;;4974610;28;20033;-79
2021/09/23 07:01:26;;;;;;;19.55;13.15;;;12.40;95.20;;;;;;4974537;28;20061;-80
2021/09/23 07:03:52;;;;;;;17.23;12.40;;;12.40;95.70;;;;;;4974814;28;20030;-79
2021/09/23 07:06:17;;;;;;;20.02;13.13;;;12.50;95.90;;;;;;4972962;28;20038;-78
2021/09/23 07:08:43;;;;;;;17.23;12.65;;;12.60;95.60;;;;;;4974547;28;20106;-78
2021/09/23 07:11:09;;;;;;;18.42;13.32;;;12.70;95.90;;;;;;4983110;28;20038;-77
2021/09/23 07:13:34;;;;;;;18.40;12.77;;;12.80;95.90;;;;;;4993902;28;20503;-77
2021/09/23 07:16:00;;;;;;;20.23;13.85;;;12.80;95.80;;;;;;4984445;28;20031;-79
2021/09/23 07:18:28;;;;;;;17.77;13.35;;;12.90;95.60;;;;;;4985412;28;20053;-80
2021/09/23 07:20:56;;;;;;;16.50;11.77;;;12.80;96.20;;;;;;4974870;28;20035;-79
2021/09/23 07:23:23;;;;;;;17.48;13.07;;;12.80;96.20;;;;;;4973473;28;20065;-76
2021/09/23 07:25:51;;;;;;;15.50;11.73;;;12.90;97.00;;;;;;4973202;28;20033;-79
2021/09/23 07:28:16;;;;;;;17.70;11.80;;;12.90;96.70;;;;;;4971369;28;20527;-83
2021/09/23 07:30:42;;;;;;;16.63;12.63;;;13.00;96.60;;;;;;4971190;28;20038;-81
2021/09/23 07:33:08;;;;;;;17.08;13.40;;;13.00;97.10;;;;;;4971554;28;20022;-81
2021/09/23 07:35:34;;;;;;;16.77;12.73;;;13.10;97.00;;;;;;4983243;28;20489;-81
2021/09/23 07:38:01;;;;;;;19.60;14.30;;;13.20;97.20;;;;;;4986819;28;20085;-79
2021/09/23 07:40:27;;;;;;;18.65;14.65;;;13.30;97.10;;;;;;4991865;28;20030;-81
2021/09/23 07:42:53;;;;;;;22.80;15.70;;;13.30;97.30;;;;;;4997982;28;20022;-79
2021/09/23 07:45:19;;;;;;;22.25;15.55;;;13.50;97.30;;;;;;4995551;28;20066;-79
2021/09/23 07:47:45;;;;;;;25.05;16.85;;;13.70;97.50;;;;;;4989154;28;20042;-79
2021/09/23 07:50:11;;;;;;;27.95;19.42;;;13.90;97.20;;;;;;4977877;28;20057;-78
2021/09/23 07:52:38;;;;;;;25.05;17.85;;;14.20;97.20;;;;;;4977898;28;20023;-81
2021/09/23 07:55:05;;;;;;;29.35;19.08;;;14.50;96.80;;;;;;4978145;28;20388;-80
2021/09/23 07:57:32;;;;;;;25.42;18.85;;;14.80;96.50;;;;;;4979011;28;20019;-82
2021/09/23 07:59:58;;;;;;;28.70;20.38;;;15.00;96.10;;;;;;4977748;28;20081;-80
2021/09/23 08:02:23;;;;;;;24.33;18.67;;;15.40;95.30;;;;;;4984508;28;20022;-82
2021/09/23 08:04:49;;;;;;;36.17;21.65;;;15.60;95.20;;;;;;4976622;28;20062;-81
2021/09/23 08:07:17;;;;;;;27.73;20.33;;;15.80;94.70;;;;;;4977599;28;20129;-83
2021/09/23 08:09:43;;;;;;;26.85;20.30;;;15.90;94.70;;;;;;4977533;28;20153;-82
2021/09/23 08:12:10;;;;;;;29.98;20.33;;;16.10;94.60;;;;;;4979379;28;20027;-78
2021/09/23 08:14:36;;;;;;;28.60;19.73;;;16.50;94.20;;;;;;4978074;28;20034;-78
2021/09/23 08:17:02;;;;;;;26.50;19.38;;;16.80;93.30;;;;;;4977683;28;20023;-78
2021/09/23 08:19:27;;;;;;;35.35;21.08;;;17.30;92.60;;;;;;4977264;28;20027;-79
2021/09/23 08:21:53;;;;;;;33.78;23.10;;;17.30;93.20;;;;;;4981661;28;20514;-88
2021/09/23 08:24:20;;;;;;;29.70;23.02;;;17.50;92.50;;;;;;4994872;28;20089;-85
2021/09/23 08:26:46;;;;;;;30.00;23.05;;;17.80;92.30;;;;;;4996675;28;20487;-82
2021/09/23 08:29:13;;;;;;;31.98;24.48;;;18.20;91.50;;;;;;4991253;28;20039;-84
2021/09/23 08:31:39;;;;;;;31.90;26.67;;;18.40;91.40;;;;;;4996814;28;20484;-83
2021/09/23 08:34:05;;;;;;;34.97;27.73;;;18.50;91.10;;;;;;4995940;28;20022;-79
2021/09/23 08:36:33;;;;;;;31.80;27.02;;;18.60;90.80;;;;;;4996730;28;20022;-83
2021/09/23 08:38:58;;;;;;;37.55;29.50;;;18.70;91.10;;;;;;4992524;28;20412;-81
2021/09/23 08:41:24;;;;;;;36.63;28.80;;;19.20;90.70;;;;;;4993197;28;20033;-78
2021/09/23 08:43:51;;;;;;;34.83;27.63;;;19.50;89.00;;;;;;4978097;28;20517;-78
2021/09/23 08:46:18;;;;;;;37.63;28.67;;;19.70;88.20;;;;;;4976877;28;20488;-89
2021/09/23 08:48:44;;;;;;;29.23;23.95;;;20.10;86.30;;;;;;4974283;28;20034;-81
2021/09/23 08:51:10;;;;;;;28.63;21.42;;;19.80;88.60;;;;;;4976892;28;20026;-79
2021/09/23 08:53:38;;;;;;;22.15;15.55;;;20.10;88.60;;;;;;4993025;28;20112;-80
2021/09/23 08:56:04;;;;;;;21.98;17.20;;;20.30;86.20;;;;;;4996175;28;20029;-78
2021/09/23 08:58:30;;;;;;;22.63;16.75;;;20.50;86.40;;;;;;4983508;28;20401;-80
2021/09/23 09:01:10;;;;;;;21.77;15.80;;;21.00;83.70;;;;;;4995940;28;20096;-81
2021/09/23 09:03:36;;;;;;;;;;;21.10;83.90;;;;;;4996746;28;20027;-81
2021/09/23 09:06:07;;;;;;;19.88;15.10;;;21.40;82.10;;;;;;4983964;28;19910;-85
2021/09/23 09:08:34;;;;;;;18.73;14.52;;;21.40;80.30;;;;;;4996063;28;20026;-83
2021/09/23 09:11:02;;;;;;;19.27;14.07;;;21.50;81.60;;;;;;4995261;28;20113;-81
2021/09/23 09:13:37;;;;;;;18.02;13.30;;;21.80;81.00;;;;;;4995356;28;20073;-82
2021/09/23 09:16:15;;;;;;;16.85;13.15;;;22.30;78.40;;;;;;4992932;28;20374;-82
2021/09/23 09:18:42;;;;;;;18.58;12.70;;;22.50;76.70;;;;;;4978079;28;20098;-82
2021/09/23 09:21:12;;;;;;;14.52;11.38;;;22.60;74.00;;;;;;4977947;28;20027;-83
2021/09/23 09:23:55;;;;;;;14.73;10.88;;;22.50;73.60;;;;;;4995279;28;20121;-80
2021/09/23 09:26:41;;;;;;;16.95;11.20;;;22.60;71.30;;;;;;4993875;28;20026;-86
2021/09/23 09:29:09;;;;;;;18.48;11.20;;;22.70;70.30;;;;;;4990234;28;20112;-82
2021/09/23 09:31:36;;;;;;;15.05;10.35;;;22.20;70.60;;;;;;4995390;28;20030;-79
2021/09/23 09:34:04;;;;;;;19.25;10.95;;;22.20;71.60;;;;;;4977927;28;20023;-79
2021/09/23 09:36:34;;;;;;;18.88;10.02;;;22.30;71.10;;;;;;4975981;28;20023;-78
2021/09/23 09:39:12;;;;;;;11.73;8.20;;;22.30;69.90;;;;;;4980343;28;20030;-82
2021/09/23 09:41:47;;;;;;;11.73;8.20;;;22.20;70.40;;;;;;4995350;28;20117;-83
2021/09/23 09:44:15;;;;;;;13.00;8.10;;;22.30;71.60;;;;;;4990844;28;20018;-81
2021/09/23 09:46:52;;;;;;;12.80;8.38;;;22.50;70.10;;;;;;4975782;28;20030;-82
2021/09/23 09:49:20;;;;;;;12.15;8.55;;;22.70;69.70;;;;;;4989254;28;20500;-86
2021/09/23 09:51:49;;;;;;;13.48;8.25;;;22.30;70.30;;;;;;4995067;28;20564;-84
2021/09/23 09:54:17;;;;;;;12.68;6.93;;;22.30;72.00;;;;;;4995068;28;20027;-84
2021/09/23 09:56:45;;;;;;;16.65;7.82;;;22.70;72.00;;;;;;4989658;28;20073;-83
2021/09/23 09:59:16;;;;;;;11.65;6.97;;;22.70;71.50;;;;;;4975681;28;20034;-84
2021/09/23 10:01:44;;;;;;;12.48;7.28;;;22.80;71.60;;;;;;4975808;28;20030;-85
2021/09/23 10:04:11;;;;;;;11.45;7.55;;;22.70;71.30;;;;;;4975522;28;20066;-81
2021/09/23 10:06:39;;;;;;;12.27;7.47;;;22.60;72.20;;;;;;4976009;28;20073;-84
2021/09/23 10:09:06;;;;;;;10.40;7.03;;;22.80;70.80;;;;;;4974111;28;20034;-84
2021/09/23 10:11:33;;;;;;;13.35;8.40;;;22.70;70.50;;;;;;4973998;28;20026;-83
2021/09/23 10:13:59;;;;;;;12.55;8.00;;;22.70;70.40;;;;;;4975951;28;20079;-83
2021/09/23 10:16:27;;;;;;;13.70;8.55;;;22.40;70.60;;;;;;4975341;28;20161;-81
2021/09/23 10:18:54;;;;;;;14.30;8.68;;;21.70;74.20;;;;;;4975158;28;20023;-82
2021/09/23 10:21:20;;;;;;;11.50;8.05;;;21.50;73.70;;;;;;4992764;28;20113;-85
2021/09/23 10:23:46;;;;;;;11.18;7.82;;;21.40;74.50;;;;;;4990063;28;20090;-85
2021/09/23 10:26:15;;;;;;;12.30;8.18;;;21.00;76.00;;;;;;4982863;28;20019;-84
2021/09/23 10:28:45;;;;;;;12.52;8.30;;;20.80;77.50;;;;;;4975336;28;20034;-83
2021/09/23 10:31:21;;;;;;;12.32;8.32;;;20.70;78.80;;;;;;4984886;28;20505;-83
2021/09/23 10:33:48;;;;;;;10.80;8.25;;;20.80;78.40;;;;;;4975197;28;20042;-81
2021/09/23 10:36:16;;;;;;;13.98;8.40;;;20.80;78.80;;;;;;4974757;28;20477;-82
2021/09/23 10:38:43;;;;;;;13.75;9.07;;;20.60;80.00;;;;;;4974900;28;20374;-81
2021/09/23 10:41:11;;;;;;;12.55;8.48;;;20.50;79.30;;;;;;4974690;28;20026;-82
2021/09/23 10:43:38;;;;;;;9.32;6.63;;;20.50;79.20;;;;;;4975072;28;20036;-82
2021/09/23 10:46:04;;;;;;;9.30;6.47;;;20.60;80.90;;;;;;4974991;28;20030;-82
2021/09/23 10:48:37;;;;;;;10.02;7.10;;;20.70;80.10;;;;;;4974769;28;20445;-81
2021/09/23 10:51:05;;;;;;;14.80;8.10;;;20.50;81.20;;;;;;4974648;28;20062;-80
2021/09/23 10:53:33;;;;;;;14.57;7.28;;;20.20;81.90;;;;;;4974687;28;20030;-80
2021/09/23 10:56:09;;;;;;;12.68;7.32;;;20.20;83.40;;;;;;4974666;28;20524;-81
2021/09/23 10:58:35;;;;;;;10.60;6.88;;;20.20;82.80;;;;;;4974831;28;20027;-81
2021/09/23 11:01:03;;;;;;;11.77;7.72;;;20.20;81.90;;;;;;4974537;28;20433;-81
2021/09/23 11:03:39;;;;;;;13.88;6.93;;;20.20;82.00;;;;;;4974533;28;20023;-80
2021/09/23 11:06:10;;;;;;;15.32;6.95;;;20.20;81.90;;;;;;4975062;28;20023;-81
2021/09/23 11:08:46;;;;;;;11.98;6.25;;;20.30;80.30;;;;;;4974461;28;20034;-81
2021/09/23 11:11:13;;;;;;;10.45;5.70;;;20.00;81.80;;;;;;4974263;28;20102;-81
2021/09/23 11:13:40;;;;;;;10.50;5.47;;;19.90;81.40;;;;;;4974692;28;20531;-81
2021/09/23 11:16:08;;;;;;;10.32;5.00;;;20.00;82.10;;;;;;4974409;28;20485;-81
2021/09/23 11:18:36;;;;;;;9.85;4.90;;;20.00;81.90;;;;;;4974581;28;20061;-81
2021/09/23 11:21:05;;;;;;;7.57;4.30;;;20.30;81.60;;;;;;4974291;28;20023;-82
2021/09/23 11:23:33;;;;;;;10.25;4.82;;;20.50;80.70;;;;;;4974187;28;20456;-80
2021/09/23 11:26:01;;;;;;;10.63;4.70;;;20.60;80.30;;;;;;4974316;28;20027;-81
2021/09/23 11:28:28;;;;;;;10.25;4.25;;;20.70;80.80;;;;;;4973019;28;20031;-80
2021/09/23 11:30:55;;;;;;;10.23;5.13;;;20.60;81.60;;;;;;4974523;28;20026;-80
2021/09/23 11:33:22;;;;;;;10.30;4.50;;;20.50;80.60;;;;;;4974769;28;20023;-82
2021/09/23 11:35:48;;;;;;;9.40;5.28;;;20.30;81.30;;;;;;4974514;28;20027;-81
2021/09/23 11:38:19;;;;;;;9.80;4.90;;;20.30;81.50;;;;;;4974402;28;20039;-79
2021/09/23 11:40:51;;;;;;;7.82;4.32;;;20.20;82.00;;;;;;4974505;28;20031;-80
2021/09/23 11:43:22;;;;;;;10.52;4.88;;;20.00;84.30;;;;;;4974475;28;20022;-80
2021/09/23 11:45:53;;;;;;;9.32;4.10;;;20.00;82.90;;;;;;4974164;28;20023;-80
2021/09/23 11:48:24;;;;;;;7.45;4.50;;;19.90;83.30;;;;;;4974423;28;20409;-81
2021/09/23 11:51:02;;;;;;;7.38;4.15;;;19.90;82.20;;;;;;4974405;28;20061;-81
2021/09/23 11:53:33;;;;;;;10.27;4.25;;;19.80;81.80;;;;;;4974436;28;20106;-81
2021/09/23 11:56:08;;;;;;;8.02;4.40;;;19.90;82.10;;;;;;4974113;28;20030;-81
2021/09/23 11:58:38;;;;;;;10.98;4.40;;;20.00;81.90;;;;;;4973960;28;20039;-80
2021/09/23 12:01:04;;;;;;;6.90;3.80;;;19.90;81.00;;;;;;4972468;28;20114;-81
2021/09/23 12:03:36;;;;;;;6.35;3.70;;;19.80;81.90;;;;;;4973996;28;20102;-81
2021/09/23 12:06:01;;;;;;;8.63;4.13;;;19.80;83.10;;;;;;4974205;28;20023;-80
2021/09/23 12:08:30;;;;;;;8.95;4.40;;;19.70;82.00;;;;;;4974248;28;20027;-81
2021/09/23 12:10:57;;;;;;;7.93;4.40;;;19.60;82.20;;;;;;4973954;28;20401;-81
2021/09/23 12:13:37;;;;;;;8.48;3.97;;;19.60;80.70;;;;;;4973906;28;20031;-80
2021/09/23 12:16:10;;;;;;;8.63;4.07;;;19.60;80.80;;;;;;4974484;28;20027;-80
2021/09/23 12:18:36;;;;;;;7.47;3.47;;;19.60;82.50;;;;;;4973756;28;20504;-81
2021/09/23 12:21:14;;;;;;;7.25;3.30;;;19.70;84.10;;;;;;4973805;28;20501;-81
2021/09/23 12:23:42;;;;;;;7.30;3.45;;;19.90;83.60;;;;;;4975784;28;20053;-81
2021/09/23 12:26:34;;;;;;;7.55;3.60;;;19.90;81.80;;;;;;4977570;28;20023;-80
2021/09/23 12:29:09;;;;;;;7.57;3.72;;;19.90;81.70;;;;;;4990277;28;20034;-80
2021/09/23 12:31:41;;;;;;;5.63;3.33;;;20.00;82.20;;;;;;4995556;28;20023;-83